aviador You're here:

CYYU Decoded Metar

KAPUSKASING in ON, CANADA
Report Time2018-01-18 13:00:00
UTC Time2018-01-18 13:52:41
Flight Rules mvfr MVFR
Wind110° at 03 kt
W.Decomp.*RWY 10: 2.8 kt HW 1.0 kt RCW
RWY 17: 1.9 kt HW 2.3 kt LCW
W.Rank110° ranks 34
Current wind is below 110° avg. (6.2)
Visibility9999 m
Phenomena:Light Snow
Clouds:Overcast 020 Hf
Expected CloudBase > 800 ft AGL from Temp-Dew spread
Ceiling2,000 ft
Temp-11°C (ISA -25)
Dew Point-13°C (85% RH)
AAT-15.3°C
QNH1009 hPa
Density Alt-2,152 ft
Elevation745 ft
Report Wrong Elevation
Raw Report
CYYU 181300Z 11003KT 12SM -SN OVC020 M11/M13 A2979 RMK SC8
SLP106=

Extra information for CYYU:More info

Metar Taf Metar & Taf Last 4 Metars F.Rules Stats Wind Profile Meteogram Temp Stats Airport Information Weather charts Add Link Nearby VenuesMetar ALERT Operation Metar Decoded Social comments